sensor_id;sensor_type;location;lat;lon;timestamp;temperature;humidity
35962;DHT22;22044;48.298;10.008;2023-07-24T00:02:39;18.80;99.90
35962;DHT22;22044;48.298;10.008;2023-07-24T00:05:25;18.80;99.90
35962;DHT22;22044;48.298;10.008;2023-07-24T00:08:10;18.80;99.90
35962;DHT22;22044;48.298;10.008;2023-07-24T00:10:57;18.80;99.90
35962;DHT22;22044;48.298;10.008;2023-07-24T00:13:44;18.80;99.90
35962;DHT22;22044;48.298;10.008;2023-07-24T00:16:30;18.90;99.90
35962;DHT22;22044;48.298;10.008;2023-07-24T00:19:15;18.90;99.90
35962;DHT22;22044;48.298;10.008;2023-07-24T00:22:01;18.80;99.90
35962;DHT22;22044;48.298;10.008;2023-07-24T00:24:47;18.60;99.90
35962;DHT22;22044;48.298;10.008;2023-07-24T00:27:34;18.70;99.90
35962;DHT22;22044;48.298;10.008;2023-07-24T00:30:19;18.50;99.90
35962;DHT22;22044;48.298;10.008;2023-07-24T00:33:05;18.30;99.90
35962;DHT22;22044;48.298;10.008;2023-07-24T00:35:55;18.30;99.90
35962;DHT22;22044;48.298;10.008;2023-07-24T00:38:41;18.30;99.90
35962;DHT22;22044;48.298;10.008;2023-07-24T00:41:26;18.20;99.90
35962;DHT22;22044;48.298;10.008;2023-07-24T00:44:13;18.10;99.90
35962;DHT22;22044;48.298;10.008;2023-07-24T00:46:59;18.20;99.90
35962;DHT22;22044;48.298;10.008;2023-07-24T00:49:45;18.30;99.90
35962;DHT22;22044;48.298;10.008;2023-07-24T00:52:32;18.20;99.90
35962;DHT22;22044;48.298;10.008;2023-07-24T00:55:18;17.60;99.90
35962;DHT22;22044;48.298;10.008;2023-07-24T00:58:04;17.30;99.90
35962;DHT22;22044;48.298;10.008;2023-07-24T01:00:51;17.30;99.90
35962;DHT22;22044;48.298;10.008;2023-07-24T01:03:37;17.00;99.90
35962;DHT22;22044;48.298;10.008;2023-07-24T01:06:23;17.10;99.90
35962;DHT22;22044;48.298;10.008;2023-07-24T01:09:09;16.90;99.90
35962;DHT22;22044;48.298;10.008;2023-07-24T01:11:59;16.80;99.90
35962;DHT22;22044;48.298;10.008;2023-07-24T01:14:49;16.50;99.90
35962;DHT22;22044;48.298;10.008;2023-07-24T01:17:43;16.60;99.90
35962;DHT22;22044;48.298;10.008;2023-07-24T01:20:35;16.90;99.90
35962;DHT22;22044;48.298;10.008;2023-07-24T01:23:44;16.60;99.90
35962;DHT22;22044;48.298;10.008;2023-07-24T01:26:38;16.90;99.90
35962;DHT22;22044;48.298;10.008;2023-07-24T01:29:23;17.10;99.90
35962;DHT22;22044;48.298;10.008;2023-07-24T01:32:09;17.20;99.90
35962;DHT22;22044;48.298;10.008;2023-07-24T01:34:55;17.30;99.90
35962;DHT22;22044;48.298;10.008;2023-07-24T01:37:41;17.40;99.90
35962;DHT22;22044;48.298;10.008;2023-07-24T01:40:28;17.40;99.90
35962;DHT22;22044;48.298;10.008;2023-07-24T01:43:15;17.50;99.90
35962;DHT22;22044;48.298;10.008;2023-07-24T01:46:01;17.60;99.90
35962;DHT22;22044;48.298;10.008;2023-07-24T01:48:46;17.70;99.90
35962;DHT22;22044;48.298;10.008;2023-07-24T01:51:32;17.70;99.90
35962;DHT22;22044;48.298;10.008;2023-07-24T01:54:18;17.80;99.90
35962;DHT22;22044;48.298;10.008;2023-07-24T01:57:04;17.50;99.90
35962;DHT22;22044;48.298;10.008;2023-07-24T01:59:51;17.50;99.90
35962;DHT22;22044;48.298;10.008;2023-07-24T02:02:37;17.50;99.90
35962;DHT22;22044;48.298;10.008;2023-07-24T02:05:22;17.20;99.90
35962;DHT22;22044;48.298;10.008;2023-07-24T02:08:08;16.90;99.90
35962;DHT22;22044;48.298;10.008;2023-07-24T02:10:54;17.20;99.90
35962;DHT22;22044;48.298;10.008;2023-07-24T02:13:40;17.20;99.90
35962;DHT22;22044;48.298;10.008;2023-07-24T02:16:27;16.90;99.90
35962;DHT22;22044;48.298;10.008;2023-07-24T02:19:12;16.60;99.90
35962;DHT22;22044;48.298;10.008;2023-07-24T02:21:58;16.60;99.90
35962;DHT22;22044;48.298;10.008;2023-07-24T02:24:43;16.60;99.90
35962;DHT22;22044;48.298;10.008;2023-07-24T02:27:31;16.30;99.90
35962;DHT22;22044;48.298;10.008;2023-07-24T02:30:18;16.30;99.90
35962;DHT22;22044;48.298;10.008;2023-07-24T02:33:05;16.20;99.90
35962;DHT22;22044;48.298;10.008;2023-07-24T02:35:52;16.30;99.90
35962;DHT22;22044;48.298;10.008;2023-07-24T02:38:37;16.40;99.90
35962;DHT22;22044;48.298;10.008;2023-07-24T02:41:25;16.60;99.90
35962;DHT22;22044;48.298;10.008;2023-07-24T02:44:12;16.80;99.90
35962;DHT22;22044;48.298;10.008;2023-07-24T02:46:58;16.80;99.90
35962;DHT22;22044;48.298;10.008;2023-07-24T02:49:45;16.90;99.90
35962;DHT22;22044;48.298;10.008;2023-07-24T02:52:32;17.00;99.90
35962;DHT22;22044;48.298;10.008;2023-07-24T02:55:17;16.80;99.90
35962;DHT22;22044;48.298;10.008;2023-07-24T02:58:03;16.90;99.90
35962;DHT22;22044;48.298;10.008;2023-07-24T03:00:48;16.50;99.90
35962;DHT22;22044;48.298;10.008;2023-07-24T03:03:34;16.20;99.90
35962;DHT22;22044;48.298;10.008;2023-07-24T03:06:21;16.30;99.90
35962;DHT22;22044;48.298;10.008;2023-07-24T03:09:07;16.00;99.90
35962;DHT22;22044;48.298;10.008;2023-07-24T03:11:52;15.90;99.90
35962;DHT22;22044;48.298;10.008;2023-07-24T03:14:38;15.90;99.90
35962;DHT22;22044;48.298;10.008;2023-07-24T03:17:23;15.90;99.90
35962;DHT22;22044;48.298;10.008;2023-07-24T03:20:13;15.90;99.90
35962;DHT22;22044;48.298;10.008;2023-07-24T03:23:00;15.80;99.90
35962;DHT22;22044;48.298;10.008;2023-07-24T03:25:46;15.80;99.90
35962;DHT22;22044;48.298;10.008;2023-07-24T03:28:32;15.90;99.90
35962;DHT22;22044;48.298;10.008;2023-07-24T03:31:17;16.10;99.90
35962;DHT22;22044;48.298;10.008;2023-07-24T03:34:03;16.10;99.90
35962;DHT22;22044;48.298;10.008;2023-07-24T03:36:49;16.10;99.90
35962;DHT22;22044;48.298;10.008;2023-07-24T03:39:36;15.90;99.90
35962;DHT22;22044;48.298;10.008;2023-07-24T03:42:25;16.00;99.90
35962;DHT22;22044;48.298;10.008;2023-07-24T03:45:11;16.10;99.90
35962;DHT22;22044;48.298;10.008;2023-07-24T03:47:57;16.10;99.90
35962;DHT22;22044;48.298;10.008;2023-07-24T03:50:42;16.30;99.90
35962;DHT22;22044;48.298;10.008;2023-07-24T03:53:28;16.40;99.90
35962;DHT22;22044;48.298;10.008;2023-07-24T03:56:15;16.50;99.90
35962;DHT22;22044;48.298;10.008;2023-07-24T03:59:00;16.60;99.90
35962;DHT22;22044;48.298;10.008;2023-07-24T04:01:46;16.70;99.90
35962;DHT22;22044;48.298;10.008;2023-07-24T04:04:32;16.60;99.90
35962;DHT22;22044;48.298;10.008;2023-07-24T04:07:18;16.70;99.90
35962;DHT22;22044;48.298;10.008;2023-07-24T04:10:05;16.90;99.90
35962;DHT22;22044;48.298;10.008;2023-07-24T04:12:52;17.00;99.90
35962;DHT22;22044;48.298;10.008;2023-07-24T04:15:37;17.00;99.90
35962;DHT22;22044;48.298;10.008;2023-07-24T04:18:24;17.10;99.90
35962;DHT22;22044;48.298;10.008;2023-07-24T04:21:09;17.10;99.90
35962;DHT22;22044;48.298;10.008;2023-07-24T04:23:55;17.20;99.90
35962;DHT22;22044;48.298;10.008;2023-07-24T04:26:40;17.20;99.90
35962;DHT22;22044;48.298;10.008;2023-07-24T04:29:27;17.10;99.90
35962;DHT22;22044;48.298;10.008;2023-07-24T04:32:13;16.90;99.90
35962;DHT22;22044;48.298;10.008;2023-07-24T04:34:58;16.90;99.90
35962;DHT22;22044;48.298;10.008;2023-07-24T04:37:44;16.90;99.90
35962;DHT22;22044;48.298;10.008;2023-07-24T04:40:30;17.00;99.90
35962;DHT22;22044;48.298;10.008;2023-07-24T04:43:15;17.10;99.90
35962;DHT22;22044;48.298;10.008;2023-07-24T04:46:02;17.00;99.90
35962;DHT22;22044;48.298;10.008;2023-07-24T04:48:48;17.10;99.90
35962;DHT22;22044;48.298;10.008;2023-07-24T04:51:33;17.10;99.90
35962;DHT22;22044;48.298;10.008;2023-07-24T04:54:19;17.20;99.90
35962;DHT22;22044;48.298;10.008;2023-07-24T04:57:05;17.20;99.90
35962;DHT22;22044;48.298;10.008;2023-07-24T04:59:50;17.30;99.90
35962;DHT22;22044;48.298;10.008;2023-07-24T05:02:37;17.40;99.90
35962;DHT22;22044;48.298;10.008;2023-07-24T05:05:23;17.40;99.90
35962;DHT22;22044;48.298;10.008;2023-07-24T05:08:09;17.20;99.90
35962;DHT22;22044;48.298;10.008;2023-07-24T05:10:55;17.30;99.90
35962;DHT22;22044;48.298;10.008;2023-07-24T05:13:40;17.30;99.90
35962;DHT22;22044;48.298;10.008;2023-07-24T05:16:26;17.50;99.90
35962;DHT22;22044;48.298;10.008;2023-07-24T05:19:13;17.60;99.90
35962;DHT22;22044;48.298;10.008;2023-07-24T05:21:58;17.60;99.90
35962;DHT22;22044;48.298;10.008;2023-07-24T05:24:44;17.70;99.90
35962;DHT22;22044;48.298;10.008;2023-07-24T05:27:29;17.70;99.90
35962;DHT22;22044;48.298;10.008;2023-07-24T05:30:15;17.70;99.90
35962;DHT22;22044;48.298;10.008;2023-07-24T05:33:01;17.80;99.90
35962;DHT22;22044;48.298;10.008;2023-07-24T05:35:48;17.90;99.90
35962;DHT22;22044;48.298;10.008;2023-07-24T05:38:34;18.00;99.90
35962;DHT22;22044;48.298;10.008;2023-07-24T05:41:19;18.00;99.90
35962;DHT22;22044;48.298;10.008;2023-07-24T05:44:05;18.10;99.90
35962;DHT22;22044;48.298;10.008;2023-07-24T05:46:52;18.10;99.90
35962;DHT22;22044;48.298;10.008;2023-07-24T05:49:37;18.10;99.90
35962;DHT22;22044;48.298;10.008;2023-07-24T05:52:24;18.10;99.90
35962;DHT22;22044;48.298;10.008;2023-07-24T05:55:10;18.00;99.90
35962;DHT22;22044;48.298;10.008;2023-07-24T05:57:56;17.90;99.90
35962;DHT22;22044;48.298;10.008;2023-07-24T06:00:41;17.90;99.90
35962;DHT22;22044;48.298;10.008;2023-07-24T06:03:27;17.80;99.90
35962;DHT22;22044;48.298;10.008;2023-07-24T06:06:13;17.70;99.90
35962;DHT22;22044;48.298;10.008;2023-07-24T06:08:59;17.60;99.90
35962;DHT22;22044;48.298;10.008;2023-07-24T06:11:45;17.50;99.90
35962;DHT22;22044;48.298;10.008;2023-07-24T06:14:30;17.40;99.90
35962;DHT22;22044;48.298;10.008;2023-07-24T06:17:16;17.40;99.90
35962;DHT22;22044;48.298;10.008;2023-07-24T06:20:02;17.10;99.90
35962;DHT22;22044;48.298;10.008;2023-07-24T06:22:48;17.00;99.90
35962;DHT22;22044;48.298;10.008;2023-07-24T06:25:36;16.90;99.90
35962;DHT22;22044;48.298;10.008;2023-07-24T06:28:22;16.70;99.90
35962;DHT22;22044;48.298;10.008;2023-07-24T06:31:10;16.60;99.90
35962;DHT22;22044;48.298;10.008;2023-07-24T06:33:56;16.70;99.90
35962;DHT22;22044;48.298;10.008;2023-07-24T06:36:41;16.80;99.90
35962;DHT22;22044;48.298;10.008;2023-07-24T06:39:27;16.90;99.90
35962;DHT22;22044;48.298;10.008;2023-07-24T06:42:15;17.00;99.90
35962;DHT22;22044;48.298;10.008;2023-07-24T06:45:00;17.10;99.90
35962;DHT22;22044;48.298;10.008;2023-07-24T06:47:46;17.10;99.90
35962;DHT22;22044;48.298;10.008;2023-07-24T06:50:31;17.10;99.90
35962;DHT22;22044;48.298;10.008;2023-07-24T06:53:17;17.00;99.90
35962;DHT22;22044;48.298;10.008;2023-07-24T06:56:03;16.90;99.90
35962;DHT22;22044;48.298;10.008;2023-07-24T06:58:50;16.90;99.90
35962;DHT22;22044;48.298;10.008;2023-07-24T07:01:36;16.80;99.90
35962;DHT22;22044;48.298;10.008;2023-07-24T07:04:21;16.80;99.90
35962;DHT22;22044;48.298;10.008;2023-07-24T07:07:07;16.70;99.90
35962;DHT22;22044;48.298;10.008;2023-07-24T07:09:53;16.90;99.90
35962;DHT22;22044;48.298;10.008;2023-07-24T07:12:38;16.80;99.90
35962;DHT22;22044;48.298;10.008;2023-07-24T07:15:25;16.80;99.90
35962;DHT22;22044;48.298;10.008;2023-07-24T07:18:10;16.70;99.90
35962;DHT22;22044;48.298;10.008;2023-07-24T07:20:56;16.90;99.90
35962;DHT22;22044;48.298;10.008;2023-07-24T07:23:42;17.00;99.90
35962;DHT22;22044;48.298;10.008;2023-07-24T07:26:27;17.00;99.90
35962;DHT22;22044;48.298;10.008;2023-07-24T07:29:14;16.90;99.90
35962;DHT22;22044;48.298;10.008;2023-07-24T07:32:02;16.90;99.90
35962;DHT22;22044;48.298;10.008;2023-07-24T07:34:47;17.10;99.90
35962;DHT22;22044;48.298;10.008;2023-07-24T07:37:33;17.30;99.90
35962;DHT22;22044;48.298;10.008;2023-07-24T07:40:19;17.30;99.90
35962;DHT22;22044;48.298;10.008;2023-07-24T07:43:07;17.40;99.90
35962;DHT22;22044;48.298;10.008;2023-07-24T07:45:53;17.60;99.90
35962;DHT22;22044;48.298;10.008;2023-07-24T07:48:42;17.70;99.90
35962;DHT22;22044;48.298;10.008;2023-07-24T07:51:27;17.90;99.90
35962;DHT22;22044;48.298;10.008;2023-07-24T07:54:14;18.00;99.90
35962;DHT22;22044;48.298;10.008;2023-07-24T07:57:04;18.20;99.90
35962;DHT22;22044;48.298;10.008;2023-07-24T07:59:50;18.30;99.90
35962;DHT22;22044;48.298;10.008;2023-07-24T08:02:35;18.30;99.90
35962;DHT22;22044;48.298;10.008;2023-07-24T08:05:25;18.50;99.90
35962;DHT22;22044;48.298;10.008;2023-07-24T08:08:10;18.60;99.90
35962;DHT22;22044;48.298;10.008;2023-07-24T08:10:56;18.70;99.90
35962;DHT22;22044;48.298;10.008;2023-07-24T08:13:42;18.80;99.90
35962;DHT22;22044;48.298;10.008;2023-07-24T08:16:28;18.80;99.90
35962;DHT22;22044;48.298;10.008;2023-07-24T08:19:13;18.90;99.90
35962;DHT22;22044;48.298;10.008;2023-07-24T08:22:00;18.90;99.90
35962;DHT22;22044;48.298;10.008;2023-07-24T08:24:45;18.90;99.90
35962;DHT22;22044;48.298;10.008;2023-07-24T08:27:34;18.90;99.90
35962;DHT22;22044;48.298;10.008;2023-07-24T08:30:19;19.10;99.90
35962;DHT22;22044;48.298;10.008;2023-07-24T08:33:05;19.20;99.90
35962;DHT22;22044;48.298;10.008;2023-07-24T08:35:59;19.10;99.90
35962;DHT22;22044;48.298;10.008;2023-07-24T08:38:46;19.20;99.90
35962;DHT22;22044;48.298;10.008;2023-07-24T08:41:32;19.40;99.90
35962;DHT22;22044;48.298;10.008;2023-07-24T08:44:19;19.60;99.90
35962;DHT22;22044;48.298;10.008;2023-07-24T08:47:09;19.60;99.90
35962;DHT22;22044;48.298;10.008;2023-07-24T08:49:56;19.60;99.90
35962;DHT22;22044;48.298;10.008;2023-07-24T08:52:42;19.70;99.90
35962;DHT22;22044;48.298;10.008;2023-07-24T08:55:30;19.80;99.90
35962;DHT22;22044;48.298;10.008;2023-07-24T08:58:16;19.90;99.90
35962;DHT22;22044;48.298;10.008;2023-07-24T09:01:03;20.00;99.90
35962;DHT22;22044;48.298;10.008;2023-07-24T09:03:49;20.10;99.90
35962;DHT22;22044;48.298;10.008;2023-07-24T09:06:34;20.10;99.90
35962;DHT22;22044;48.298;10.008;2023-07-24T09:09:20;20.30;99.90
35962;DHT22;22044;48.298;10.008;2023-07-24T09:12:08;20.30;99.90
35962;DHT22;22044;48.298;10.008;2023-07-24T09:15:04;20.40;99.90
35962;DHT22;22044;48.298;10.008;2023-07-24T09:17:50;20.50;99.90
35962;DHT22;22044;48.298;10.008;2023-07-24T09:20:39;20.60;99.90
35962;DHT22;22044;48.298;10.008;2023-07-24T09:23:26;20.30;99.90
35962;DHT22;22044;48.298;10.008;2023-07-24T09:26:12;20.20;99.90
35962;DHT22;22044;48.298;10.008;2023-07-24T09:28:59;20.00;99.90
35962;DHT22;22044;48.298;10.008;2023-07-24T09:31:45;20.10;99.90
35962;DHT22;22044;48.298;10.008;2023-07-24T09:34:31;20.10;99.90
35962;DHT22;22044;48.298;10.008;2023-07-24T09:37:24;20.30;99.90
35962;DHT22;22044;48.298;10.008;2023-07-24T09:40:13;20.30;99.90
35962;DHT22;22044;48.298;10.008;2023-07-24T09:42:59;20.20;99.90
35962;DHT22;22044;48.298;10.008;2023-07-24T09:45:47;20.10;99.90
35962;DHT22;22044;48.298;10.008;2023-07-24T09:48:33;20.00;99.90
35962;DHT22;22044;48.298;10.008;2023-07-24T09:51:20;20.20;99.90
35962;DHT22;22044;48.298;10.008;2023-07-24T09:54:09;20.40;99.90
35962;DHT22;22044;48.298;10.008;2023-07-24T09:56:59;20.50;99.90
35962;DHT22;22044;48.298;10.008;2023-07-24T09:59:45;20.70;99.90
35962;DHT22;22044;48.298;10.008;2023-07-24T10:02:34;21.10;99.90
35962;DHT22;22044;48.298;10.008;2023-07-24T10:05:21;21.00;99.90
35962;DHT22;22044;48.298;10.008;2023-07-24T10:08:07;21.00;99.90
35962;DHT22;22044;48.298;10.008;2023-07-24T10:10:52;21.10;99.90
35962;DHT22;22044;48.298;10.008;2023-07-24T10:13:38;21.30;99.90
35962;DHT22;22044;48.298;10.008;2023-07-24T10:16:24;21.60;99.90
35962;DHT22;22044;48.298;10.008;2023-07-24T10:19:15;21.80;99.90
35962;DHT22;22044;48.298;10.008;2023-07-24T10:22:01;22.00;99.90
35962;DHT22;22044;48.298;10.008;2023-07-24T10:24:47;22.10;99.90
35962;DHT22;22044;48.298;10.008;2023-07-24T10:27:35;22.20;99.90
35962;DHT22;22044;48.298;10.008;2023-07-24T10:30:28;22.50;99.90
35962;DHT22;22044;48.298;10.008;2023-07-24T10:33:20;22.60;99.90
35962;DHT22;22044;48.298;10.008;2023-07-24T10:36:08;22.80;99.90
35962;DHT22;22044;48.298;10.008;2023-07-24T10:38:57;23.00;99.90
35962;DHT22;22044;48.298;10.008;2023-07-24T10:41:42;23.10;99.90
35962;DHT22;22044;48.298;10.008;2023-07-24T10:44:30;23.10;99.90
35962;DHT22;22044;48.298;10.008;2023-07-24T10:47:16;23.30;99.90
35962;DHT22;22044;48.298;10.008;2023-07-24T10:50:06;23.40;99.90
35962;DHT22;22044;48.298;10.008;2023-07-24T10:52:53;23.30;99.90
35962;DHT22;22044;48.298;10.008;2023-07-24T10:55:39;23.30;99.90
35962;DHT22;22044;48.298;10.008;2023-07-24T10:58:25;23.30;99.90
35962;DHT22;22044;48.298;10.008;2023-07-24T11:01:12;23.20;99.90
35962;DHT22;22044;48.298;10.008;2023-07-24T11:03:58;23.10;99.90
35962;DHT22;22044;48.298;10.008;2023-07-24T11:06:45;23.10;99.90
35962;DHT22;22044;48.298;10.008;2023-07-24T11:09:40;22.90;99.90
35962;DHT22;22044;48.298;10.008;2023-07-24T11:12:26;22.60;99.90
35962;DHT22;22044;48.298;10.008;2023-07-24T11:15:15;22.20;99.90
35962;DHT22;22044;48.298;10.008;2023-07-24T11:18:00;21.60;99.90
35962;DHT22;22044;48.298;10.008;2023-07-24T11:20:49;20.60;99.90
35962;DHT22;22044;48.298;10.008;2023-07-24T11:23:35;20.10;99.90
35962;DHT22;22044;48.298;10.008;2023-07-24T11:26:24;19.90;99.90
35962;DHT22;22044;48.298;10.008;2023-07-24T11:29:13;19.70;99.90
35962;DHT22;22044;48.298;10.008;2023-07-24T11:31:58;19.60;99.90
35962;DHT22;22044;48.298;10.008;2023-07-24T11:34:44;19.50;99.90
35962;DHT22;22044;48.298;10.008;2023-07-24T11:37:30;19.40;99.90
35962;DHT22;22044;48.298;10.008;2023-07-24T11:40:16;19.40;99.90
35962;DHT22;22044;48.298;10.008;2023-07-24T11:43:14;19.30;99.90
35962;DHT22;22044;48.298;10.008;2023-07-24T11:46:00;19.20;99.90
35962;DHT22;22044;48.298;10.008;2023-07-24T11:48:45;19.20;99.90
35962;DHT22;22044;48.298;10.008;2023-07-24T11:51:31;19.30;99.90
35962;DHT22;22044;48.298;10.008;2023-07-24T11:54:18;19.30;99.90
35962;DHT22;22044;48.298;10.008;2023-07-24T11:57:14;19.30;99.90
35962;DHT22;22044;48.298;10.008;2023-07-24T12:00:02;19.20;99.90
35962;DHT22;22044;48.298;10.008;2023-07-24T12:02:52;18.80;99.90
35962;DHT22;22044;48.298;10.008;2023-07-24T12:05:39;18.50;99.90
35962;DHT22;22044;48.298;10.008;2023-07-24T12:08:30;18.30;99.90
35962;DHT22;22044;48.298;10.008;2023-07-24T12:11:17;18.00;99.90
35962;DHT22;22044;48.298;10.008;2023-07-24T12:14:03;17.90;99.90
35962;DHT22;22044;48.298;10.008;2023-07-24T12:17:00;18.00;99.90
35962;DHT22;22044;48.298;10.008;2023-07-24T12:19:46;17.90;99.90
35962;DHT22;22044;48.298;10.008;2023-07-24T12:22:32;18.10;99.90
35962;DHT22;22044;48.298;10.008;2023-07-24T12:25:17;18.10;99.90
35962;DHT22;22044;48.298;10.008;2023-07-24T12:28:04;18.00;99.90
35962;DHT22;22044;48.298;10.008;2023-07-24T12:30:49;17.90;99.90
35962;DHT22;22044;48.298;10.008;2023-07-24T12:33:36;17.80;99.90
35962;DHT22;22044;48.298;10.008;2023-07-24T12:36:22;17.80;99.90
35962;DHT22;22044;48.298;10.008;2023-07-24T12:39:07;17.80;99.90
35962;DHT22;22044;48.298;10.008;2023-07-24T12:41:53;17.80;99.90
35962;DHT22;22044;48.298;10.008;2023-07-24T12:44:39;17.70;99.90
35962;DHT22;22044;48.298;10.008;2023-07-24T12:47:24;17.70;99.90
35962;DHT22;22044;48.298;10.008;2023-07-24T12:50:11;17.70;99.90
35962;DHT22;22044;48.298;10.008;2023-07-24T12:52:57;17.60;99.90
35962;DHT22;22044;48.298;10.008;2023-07-24T12:55:43;17.60;99.90
35962;DHT22;22044;48.298;10.008;2023-07-24T12:58:28;17.60;99.90
35962;DHT22;22044;48.298;10.008;2023-07-24T13:01:14;17.40;99.90
35962;DHT22;22044;48.298;10.008;2023-07-24T13:03:59;17.40;99.90
35962;DHT22;22044;48.298;10.008;2023-07-24T13:06:46;17.40;99.90
35962;DHT22;22044;48.298;10.008;2023-07-24T13:09:32;17.50;99.90
35962;DHT22;22044;48.298;10.008;2023-07-24T13:12:17;17.70;99.90
35962;DHT22;22044;48.298;10.008;2023-07-24T13:15:04;17.90;99.90
35962;DHT22;22044;48.298;10.008;2023-07-24T13:17:50;18.10;99.90
35962;DHT22;22044;48.298;10.008;2023-07-24T13:20:36;18.20;99.90
35962;DHT22;22044;48.298;10.008;2023-07-24T13:23:23;18.40;99.90
35962;DHT22;22044;48.298;10.008;2023-07-24T13:26:08;18.50;99.90
35962;DHT22;22044;48.298;10.008;2023-07-24T13:28:54;18.30;99.90
35962;DHT22;22044;48.298;10.008;2023-07-24T13:31:40;18.30;99.90
35962;DHT22;22044;48.298;10.008;2023-07-24T13:34:26;18.30;99.90
35962;DHT22;22044;48.298;10.008;2023-07-24T13:37:11;18.30;99.90
35962;DHT22;22044;48.298;10.008;2023-07-24T13:39:58;18.20;99.90
35962;DHT22;22044;48.298;10.008;2023-07-24T13:42:46;18.20;99.90
35962;DHT22;22044;48.298;10.008;2023-07-24T13:45:32;18.00;99.90
35962;DHT22;22044;48.298;10.008;2023-07-24T13:48:17;18.00;99.90
35962;DHT22;22044;48.298;10.008;2023-07-24T13:51:03;18.10;99.90
35962;DHT22;22044;48.298;10.008;2023-07-24T13:53:49;18.30;99.90
35962;DHT22;22044;48.298;10.008;2023-07-24T13:56:37;18.80;99.90
35962;DHT22;22044;48.298;10.008;2023-07-24T13:59:23;19.00;99.90
35962;DHT22;22044;48.298;10.008;2023-07-24T14:02:08;19.10;99.90
35962;DHT22;22044;48.298;10.008;2023-07-24T14:04:54;19.30;99.90
35962;DHT22;22044;48.298;10.008;2023-07-24T14:07:39;19.60;99.90
35962;DHT22;22044;48.298;10.008;2023-07-24T14:10:25;19.80;99.90
35962;DHT22;22044;48.298;10.008;2023-07-24T14:13:12;19.70;99.90
35962;DHT22;22044;48.298;10.008;2023-07-24T14:15:57;19.80;99.90
35962;DHT22;22044;48.298;10.008;2023-07-24T14:18:43;19.80;99.90
35962;DHT22;22044;48.298;10.008;2023-07-24T14:21:29;19.70;99.90
35962;DHT22;22044;48.298;10.008;2023-07-24T14:24:14;19.70;99.90
35962;DHT22;22044;48.298;10.008;2023-07-24T14:27:00;19.40;99.90
35962;DHT22;22044;48.298;10.008;2023-07-24T14:29:47;19.50;99.90
35962;DHT22;22044;48.298;10.008;2023-07-24T14:32:33;19.30;99.90
35962;DHT22;22044;48.298;10.008;2023-07-24T14:35:18;19.10;99.90
35962;DHT22;22044;48.298;10.008;2023-07-24T14:38:05;19.00;99.90
35962;DHT22;22044;48.298;10.008;2023-07-24T14:40:50;18.90;99.90
35962;DHT22;22044;48.298;10.008;2023-07-24T14:43:36;19.00;99.90
35962;DHT22;22044;48.298;10.008;2023-07-24T14:46:23;19.00;99.90
35962;DHT22;22044;48.298;10.008;2023-07-24T14:49:08;19.20;99.90
35962;DHT22;22044;48.298;10.008;2023-07-24T14:51:54;19.30;99.90
35962;DHT22;22044;48.298;10.008;2023-07-24T14:54:39;19.10;99.90
35962;DHT22;22044;48.298;10.008;2023-07-24T14:57:25;19.20;99.90
35962;DHT22;22044;48.298;10.008;2023-07-24T15:00:11;19.20;99.90
35962;DHT22;22044;48.298;10.008;2023-07-24T15:02:58;19.10;99.90
35962;DHT22;22044;48.298;10.008;2023-07-24T15:05:44;19.00;99.90
35962;DHT22;22044;48.298;10.008;2023-07-24T15:08:29;18.80;99.90
35962;DHT22;22044;48.298;10.008;2023-07-24T15:11:15;18.60;99.90
35962;DHT22;22044;48.298;10.008;2023-07-24T15:14:01;18.70;99.90
35962;DHT22;22044;48.298;10.008;2023-07-24T15:16:47;18.80;99.90
35962;DHT22;22044;48.298;10.008;2023-07-24T15:19:34;18.60;99.90
35962;DHT22;22044;48.298;10.008;2023-07-24T15:22:19;18.20;99.90
35962;DHT22;22044;48.298;10.008;2023-07-24T15:25:05;18.10;99.90
35962;DHT22;22044;48.298;10.008;2023-07-24T15:27:53;18.00;99.90
35962;DHT22;22044;48.298;10.008;2023-07-24T15:30:39;18.30;99.90
35962;DHT22;22044;48.298;10.008;2023-07-24T15:33:24;18.40;99.90
35962;DHT22;22044;48.298;10.008;2023-07-24T15:36:11;18.20;99.90
35962;DHT22;22044;48.298;10.008;2023-07-24T15:38:57;18.10;99.90
35962;DHT22;22044;48.298;10.008;2023-07-24T15:41:42;18.20;99.90
35962;DHT22;22044;48.298;10.008;2023-07-24T15:44:28;18.40;99.90
35962;DHT22;22044;48.298;10.008;2023-07-24T15:47:14;18.30;99.90
35962;DHT22;22044;48.298;10.008;2023-07-24T15:49:59;18.40;99.90
35962;DHT22;22044;48.298;10.008;2023-07-24T15:52:47;18.30;99.90
35962;DHT22;22044;48.298;10.008;2023-07-24T15:55:33;18.10;99.90
35962;DHT22;22044;48.298;10.008;2023-07-24T15:58:18;17.90;99.90
35962;DHT22;22044;48.298;10.008;2023-07-24T16:01:04;17.90;99.90
35962;DHT22;22044;48.298;10.008;2023-07-24T16:03:51;18.00;99.90
35962;DHT22;22044;48.298;10.008;2023-07-24T16:06:36;18.00;99.90
35962;DHT22;22044;48.298;10.008;2023-07-24T16:09:24;18.20;99.90
35962;DHT22;22044;48.298;10.008;2023-07-24T16:12:09;18.20;99.90
35962;DHT22;22044;48.298;10.008;2023-07-24T16:14:54;18.30;99.90
35962;DHT22;22044;48.298;10.008;2023-07-24T16:17:40;18.70;99.90
35962;DHT22;22044;48.298;10.008;2023-07-24T16:20:26;19.10;99.90
35962;DHT22;22044;48.298;10.008;2023-07-24T16:23:11;19.30;99.90
35962;DHT22;22044;48.298;10.008;2023-07-24T16:25:58;19.50;99.90
35962;DHT22;22044;48.298;10.008;2023-07-24T16:28:45;19.70;99.90
35962;DHT22;22044;48.298;10.008;2023-07-24T16:31:31;19.90;99.90
35962;DHT22;22044;48.298;10.008;2023-07-24T16:34:16;20.00;99.90
35962;DHT22;22044;48.298;10.008;2023-07-24T16:37:02;20.00;99.90
35962;DHT22;22044;48.298;10.008;2023-07-24T16:39:49;19.70;99.90
35962;DHT22;22044;48.298;10.008;2023-07-24T16:42:36;19.40;99.90
35962;DHT22;22044;48.298;10.008;2023-07-24T16:45:21;19.50;99.90
35962;DHT22;22044;48.298;10.008;2023-07-24T16:48:07;19.40;99.90
35962;DHT22;22044;48.298;10.008;2023-07-24T16:50:53;19.20;99.90
35962;DHT22;22044;48.298;10.008;2023-07-24T16:53:38;19.00;99.90
35962;DHT22;22044;48.298;10.008;2023-07-24T16:56:24;18.90;99.90
35962;DHT22;22044;48.298;10.008;2023-07-24T16:59:11;18.90;99.90
35962;DHT22;22044;48.298;10.008;2023-07-24T17:01:56;18.90;99.90
35962;DHT22;22044;48.298;10.008;2023-07-24T17:04:42;18.80;99.90
35962;DHT22;22044;48.298;10.008;2023-07-24T17:07:28;18.80;99.90
35962;DHT22;22044;48.298;10.008;2023-07-24T17:10:13;18.80;99.90
35962;DHT22;22044;48.298;10.008;2023-07-24T17:13:00;18.80;99.90
35962;DHT22;22044;48.298;10.008;2023-07-24T17:15:47;18.90;99.90